Time;durP1;ratioP1;P1;durP2;ratioP2;P2;SDS_P1;SDS_P2;PMS_P1;PMS_P2;Temp;Humidity;BMP_temperature;BMP_pressure;BME280_temperature;BME280_humidity;BME280_pressure;Samples;Min_cycle;Max_cycle;Signal;HPM_P1;HPM_P2
2023/01/04 00:02:03;;;;;;;1.65;0.80;;;20.80;52.00;;;;;;6085789;23;20098;-62
2023/01/04 00:04:28;;;;;;;2.13;1.00;;;20.80;52.10;;;;;;6084801;23;20372;-60
2023/01/04 00:06:55;;;;;;;1.30;0.90;;;20.80;52.10;;;;;;6085928;23;20018;-57
2023/01/04 00:09:21;;;;;;;1.10;1.00;;;20.80;52.00;;;;;;6085083;23;20106;-59
2023/01/04 00:11:46;;;;;;;1.63;1.02;;;20.80;52.00;;;;;;6086199;23;20486;-59
2023/01/04 00:14:13;;;;;;;1.85;0.90;;;20.80;51.90;;;;;;6086905;23;20316;-61
2023/01/04 00:16:39;;;;;;;3.25;1.20;;;20.80;51.80;;;;;;6085938;23;20064;-61
2023/01/04 00:19:04;;;;;;;1.25;0.90;;;20.70;51.80;;;;;;6086279;23;20019;-61
2023/01/04 00:21:30;;;;;;;2.35;1.00;;;20.70;51.70;;;;;;6083928;23;20093;-58
2023/01/04 00:23:59;;;;;;;2.15;1.00;;;20.70;51.70;;;;;;6086303;23;20018;-61
2023/01/04 00:26:32;;;;;;;2.80;1.13;;;20.70;51.80;;;;;;6084193;23;20113;-62
2023/01/04 00:29:00;;;;;;;1.13;0.80;;;20.70;51.80;;;;;;6084323;23;20015;-59
2023/01/04 00:31:27;;;;;;;1.50;0.82;;;20.70;51.70;;;;;;6084071;23;20057;-59
2023/01/04 00:33:59;;;;;;;1.37;0.97;;;20.70;51.60;;;;;;6084781;23;20448;-59
2023/01/04 00:36:25;;;;;;;1.30;1.00;;;20.70;51.60;;;;;;6084274;23;20333;-60
2023/01/04 00:39:07;;;;;;;2.95;1.30;;;20.70;51.60;;;;;;6082755;23;20181;-58
2023/01/04 00:41:41;;;;;;;2.08;0.98;;;20.60;51.60;;;;;;6057124;23;20364;-60
2023/01/04 00:44:08;;;;;;;2.80;0.95;;;20.60;51.50;;;;;;6082052;23;20010;-59
2023/01/04 00:46:34;;;;;;;1.48;0.82;;;20.60;51.60;;;;;;6060036;23;20018;-60
2023/01/04 00:49:00;;;;;;;1.48;0.93;;;20.60;51.60;;;;;;6086115;23;20486;-60
2023/01/04 00:51:26;;;;;;;1.00;0.70;;;20.60;51.60;;;;;;6084568;23;20133;-59
2023/01/04 00:53:52;;;;;;;2.00;0.95;;;20.60;51.50;;;;;;6060658;23;20014;-59
2023/01/04 00:56:18;;;;;;;1.95;1.17;;;20.60;51.50;;;;;;6085980;23;20093;-58
2023/01/04 00:58:43;;;;;;;2.70;1.33;;;20.60;51.50;;;;;;6086249;23;20014;-59
2023/01/04 01:01:09;;;;;;;1.67;1.08;;;20.50;51.40;;;;;;6087544;23;20015;-59
2023/01/04 01:03:35;;;;;;;1.48;1.02;;;20.50;51.40;;;;;;6087543;23;20021;-60
2023/01/04 01:06:06;;;;;;;1.55;0.90;;;20.50;51.40;;;;;;6087436;23;20347;-61
2023/01/04 01:08:33;;;;;;;1.88;0.90;;;20.50;51.40;;;;;;6086818;23;20402;-60
2023/01/04 01:11:07;;;;;;;2.60;1.10;;;20.50;51.40;;;;;;6085062;23;20028;-59
2023/01/04 01:13:33;;;;;;;1.02;0.75;;;20.50;51.40;;;;;;6087135;23;20458;-58
2023/01/04 01:16:07;;;;;;;2.10;0.98;;;20.50;51.40;;;;;;6087110;23;20023;-60
2023/01/04 01:18:34;;;;;;;1.85;0.88;;;20.50;51.30;;;;;;6087080;23;20018;-59
2023/01/04 01:21:07;;;;;;;1.75;0.93;;;20.50;51.40;;;;;;6086503;23;20108;-62
2023/01/04 01:23:33;;;;;;;1.73;0.80;;;20.50;51.30;;;;;;6086616;23;20024;-58
2023/01/04 01:26:04;;;;;;;2.05;0.80;;;20.50;51.40;;;;;;6085012;23;20018;-59
2023/01/04 01:28:30;;;;;;;1.95;0.93;;;20.50;51.40;;;;;;6086692;23;20018;-59
2023/01/04 01:30:58;;;;;;;1.00;0.70;;;20.50;51.30;;;;;;6086455;23;20191;-61
2023/01/04 01:33:25;;;;;;;1.63;0.93;;;20.40;51.30;;;;;;6086653;23;20022;-61
2023/01/04 01:35:50;;;;;;;1.33;0.73;;;20.40;52.00;;;;;;6087902;23;20014;-59
2023/01/04 01:38:16;;;;;;;0.90;0.60;;;20.40;51.30;;;;;;6086486;23;20556;-58
2023/01/04 01:40:42;;;;;;;1.42;0.80;;;20.40;51.30;;;;;;6085979;23;20026;-60
2023/01/04 01:43:17;;;;;;;0.93;0.70;;;20.40;51.30;;;;;;6087696;23;20026;-61
2023/01/04 01:45:43;;;;;;;2.58;1.00;;;20.40;51.30;;;;;;6088599;23;20541;-59
2023/01/04 01:48:15;;;;;;;1.20;0.80;;;20.40;51.30;;;;;;6087232;23;20014;-60
2023/01/04 01:51:01;;;;;;;1.17;0.52;;;20.40;51.30;;;;;;6088802;23;20018;-60
2023/01/04 01:53:28;;;;;;;3.15;0.90;;;20.40;51.30;;;;;;6089388;23;20077;-58
2023/01/04 01:55:56;;;;;;;1.15;0.80;;;20.40;51.30;;;;;;6088035;23;20038;-62
2023/01/04 01:58:36;;;;;;;0.82;0.50;;;20.40;51.30;;;;;;6088958;23;20011;-59
2023/01/04 02:01:02;;;;;;;0.90;0.52;;;20.40;51.30;;;;;;6088650;23;20015;-61
2023/01/04 02:03:36;;;;;;;1.70;0.90;;;20.30;51.20;;;;;;6086098;23;20015;-60
2023/01/04 02:06:04;;;;;;;1.00;0.90;;;20.40;51.30;;;;;;6087940;23;20459;-60
2023/01/04 02:08:30;;;;;;;2.78;0.75;;;20.30;51.20;;;;;;6086543;23;20019;-59
2023/01/04 02:10:56;;;;;;;1.00;0.80;;;20.30;51.20;;;;;;6088638;23;20588;-59
2023/01/04 02:16:43;;;;;;;0.90;0.80;;;20.30;51.20;;;;;;6087887;23;20023;-58
2023/01/04 02:19:30;;;;;;;1.45;0.90;;;20.30;51.20;;;;;;6086944;23;20227;-60
2023/01/04 02:22:26;;;;;;;1.73;0.70;;;20.30;51.30;;;;;;6086346;23;20018;-59
2023/01/04 02:25:07;;;;;;;1.25;0.52;;;20.30;51.30;;;;;;6087778;23;20020;-59
2023/01/04 02:28:05;;;;;;;1.00;0.60;;;20.30;51.30;;;;;;6086963;23;20030;-59
2023/01/04 02:30:43;;;;;;;0.90;0.70;;;20.30;51.30;;;;;;6062018;23;20022;-60
2023/01/04 02:33:11;;;;;;;0.57;0.57;;;20.30;51.40;;;;;;6087992;23;20030;-58
2023/01/04 02:35:58;;;;;;;1.13;0.70;;;20.20;51.30;;;;;;6087798;23;20069;-60
2023/01/04 02:38:35;;;;;;;0.70;0.50;;;20.30;51.30;;;;;;6087782;23;20517;-58
2023/01/04 02:41:09;;;;;;;1.10;0.70;;;20.20;51.30;;;;;;6088075;23;20046;-59
2023/01/04 02:46:48;;;;;;;1.10;0.90;;;20.20;51.30;;;;;;6087286;23;20513;-59
2023/01/04 02:51:58;;;;;;;1.75;0.57;;;20.20;51.40;;;;;;6085530;23;20357;-59
2023/01/04 02:54:29;;;;;;;0.70;0.43;;;20.20;51.40;;;;;;6086447;23;20022;-58
2023/01/04 02:57:32;;;;;;;1.25;0.68;;;20.20;51.40;;;;;;6086843;23;20018;-60
2023/01/04 03:06:14;;;;;;;1.10;0.50;;;20.20;51.40;;;;;;6086833;23;20022;-63
2023/01/04 03:06:47;;;;;;;0.88;0.40;;;20.10;51.50;;;;;;6084885;23;20063;-60
2023/01/04 03:09:20;;;;;;;0.45;0.45;;;20.10;51.50;;;;;;6087644;23;20510;-59
2023/01/04 03:14:59;;;;;;;1.10;0.50;;;20.10;51.50;;;;;;6088117;23;20090;-60
2023/01/04 03:17:29;;;;;;;0.88;0.50;;;20.10;51.50;;;;;;6087109;23;20021;-59
2023/01/04 03:19:58;;;;;;;0.70;0.40;;;20.10;51.50;;;;;;6088610;23;20491;-58
2023/01/04 03:36:44;;;;;;;0.50;0.40;;;20.10;51.60;;;;;;6087343;23;20027;-59
2023/01/04 03:48:27;;;;;;;0.50;0.40;;;20.00;51.60;;;;;;6087394;23;20057;-60
2023/01/04 03:51:14;;;;;;;0.43;0.30;;;20.00;51.70;;;;;;6086093;23;20025;-60
2023/01/04 03:54:03;;;;;;;0.68;0.50;;;20.00;52.50;;;;;;6088074;23;20014;-59
2023/01/04 03:56:30;;;;;;;0.40;0.32;;;19.90;51.70;;;;;;6086940;23;20351;-59
2023/01/04 03:58:56;;;;;;;0.50;0.50;;;19.90;51.80;;;;;;6086449;23;20014;-60
2023/01/04 04:01:24;;;;;;;0.30;0.30;;;19.90;51.80;;;;;;6087104;23;20018;-59
2023/01/04 04:09:19;;;;;;;0.82;0.30;;;19.90;51.80;;;;;;6088538;23;20399;-59
2023/01/04 04:11:45;;;;;;;0.57;0.38;;;19.90;51.80;;;;;;6086242;23;20022;-60
2023/01/04 04:14:11;;;;;;;0.30;0.30;;;19.90;51.90;;;;;;6088045;23;20324;-60
2023/01/04 04:16:36;;;;;;;0.20;0.20;;;19.90;51.90;;;;;;6087189;23;20022;-58
2023/01/04 04:19:02;;;;;;;0.47;0.30;;;19.90;51.90;;;;;;6037643;23;20049;-61
2023/01/04 04:21:28;;;;;;;0.30;0.30;;;19.90;51.90;;;;;;6085307;23;20090;-58
2023/01/04 04:23:55;;;;;;;0.70;0.30;;;19.90;52.70;;;;;;6085276;23;20496;-62
2023/01/04 04:26:21;;;;;;;0.40;0.30;;;19.90;51.90;;;;;;6086476;23;20022;-59
2023/01/04 04:28:46;;;;;;;0.52;0.30;;;19.90;52.00;;;;;;6086164;23;20022;-59
2023/01/04 04:31:12;;;;;;;0.28;0.28;;;19.90;52.00;;;;;;6086858;23;20033;-58
2023/01/04 04:33:39;;;;;;;0.30;0.30;;;19.90;52.00;;;;;;6086170;23;20685;-58
2023/01/04 04:36:05;;;;;;;0.95;0.20;;;19.90;52.00;;;;;;6085372;23;20021;-60
2023/01/04 04:38:31;;;;;;;0.65;0.30;;;19.90;52.00;;;;;;6085846;23;20014;-60
2023/01/04 04:43:41;;;;;;;0.20;0.20;;;19.90;52.10;;;;;;6086089;23;20052;-58
2023/01/04 04:46:07;;;;;;;0.30;0.30;;;19.90;52.10;;;;;;6059762;23;20025;-60
2023/01/04 04:48:32;;;;;;;0.40;0.40;;;19.90;52.20;;;;;;6086229;23;20029;-62
2023/01/04 04:50:58;;;;;;;0.40;0.35;;;19.90;52.10;;;;;;6084477;23;20459;-58
2023/01/04 04:53:24;;;;;;;0.20;0.20;;;19.90;52.20;;;;;;6086686;23;20015;-59
2023/01/04 04:55:53;;;;;;;0.90;0.30;;;19.90;52.20;;;;;;6084203;23;20451;-62
2023/01/04 04:58:19;;;;;;;0.65;0.40;;;19.90;52.20;;;;;;6084029;23;20482;-63
2023/01/04 05:00:45;;;;;;;0.22;0.22;;;19.90;52.30;;;;;;6086106;23;20018;-63
2023/01/04 05:03:10;;;;;;;0.20;0.20;;;19.80;52.20;;;;;;6086273;23;20015;-59
2023/01/04 05:05:36;;;;;;;0.30;0.30;;;19.80;52.20;;;;;;6089432;23;20822;-59
2023/01/04 05:08:02;;;;;;;0.40;0.20;;;19.80;52.30;;;;;;6087195;23;20518;-61
2023/01/04 05:10:27;;;;;;;0.20;0.20;;;19.80;52.20;;;;;;6086629;23;20518;-59
2023/01/04 05:12:59;;;;;;;0.38;0.30;;;19.80;52.30;;;;;;6088417;23;20018;-59
2023/01/04 05:15:26;;;;;;;0.30;0.10;;;19.80;52.30;;;;;;6088315;23;20093;-60
2023/01/04 05:17:52;;;;;;;0.35;0.20;;;19.80;52.30;;;;;;6088321;23;20066;-60
2023/01/04 05:20:17;;;;;;;0.40;0.40;;;19.80;52.40;;;;;;6088451;23;20010;-59
2023/01/04 05:22:43;;;;;;;1.52;0.30;;;19.80;52.40;;;;;;6088326;23;20014;-58
2023/01/04 05:25:10;;;;;;;0.98;0.40;;;19.80;52.50;;;;;;6088148;23;20019;-58
2023/01/04 05:27:36;;;;;;;0.52;0.22;;;19.80;52.50;;;;;;6085851;23;20029;-60
2023/01/04 05:32:47;;;;;;;0.40;0.40;;;19.80;52.50;;;;;;6088123;23;20026;-60
2023/01/04 05:35:13;;;;;;;0.60;0.30;;;19.80;52.60;;;;;;6087867;23;20018;-61
2023/01/04 05:37:39;;;;;;;0.30;0.30;;;19.80;52.60;;;;;;6087377;23;20446;-59
2023/01/04 05:40:05;;;;;;;0.45;0.32;;;19.80;52.60;;;;;;6087898;23;20019;-60
2023/01/04 05:42:30;;;;;;;0.32;0.32;;;19.70;52.60;;;;;;6087920;23;20014;-60
2023/01/04 05:44:58;;;;;;;0.80;0.20;;;19.80;52.70;;;;;;6087820;23;20014;-58
2023/01/04 05:47:24;;;;;;;1.25;0.32;;;19.80;52.70;;;;;;6087521;23;20022;-60
2023/01/04 05:49:51;;;;;;;0.40;0.30;;;19.80;52.70;;;;;;6086491;23;20053;-60
2023/01/04 05:52:17;;;;;;;0.65;0.43;;;19.80;52.80;;;;;;6088345;23;20745;-58
2023/01/04 05:54:43;;;;;;;1.65;0.40;;;19.80;52.70;;;;;;6088686;23;20015;-60
2023/01/04 05:57:09;;;;;;;0.40;0.30;;;19.80;52.70;;;;;;6088314;23;20044;-59
2023/01/04 05:59:35;;;;;;;1.98;0.30;;;19.80;52.70;;;;;;6087871;23;20062;-59
2023/01/04 06:02:01;;;;;;;2.33;0.50;;;19.80;52.80;;;;;;6087677;23;20050;-62
2023/01/04 06:04:27;;;;;;;1.23;0.40;;;19.80;52.90;;;;;;6086616;23;20014;-63
2023/01/04 06:06:52;;;;;;;6.22;0.70;;;19.80;52.90;;;;;;6087641;23;20046;-62
2023/01/04 06:09:18;;;;;;;2.47;0.20;;;19.80;53.00;;;;;;6088637;23;20017;-59
2023/01/04 06:11:44;;;;;;;0.45;0.30;;;19.80;53.10;;;;;;6086188;23;20637;-59
2023/01/04 06:14:09;;;;;;;0.13;0.13;;;19.80;53.10;;;;;;6088415;23;20019;-58
2023/01/04 06:16:35;;;;;;;1.38;0.25;;;19.80;53.10;;;;;;6087272;23;20018;-59
2023/01/04 06:19:01;;;;;;;1.00;0.35;;;19.70;53.10;;;;;;6086459;23;20957;-58
2023/01/04 06:21:27;;;;;;;2.80;0.25;;;19.70;53.10;;;;;;6087159;23;20014;-60
2023/01/04 06:23:53;;;;;;;1.35;0.38;;;19.70;53.20;;;;;;6088385;23;20022;-58
2023/01/04 06:26:20;;;;;;;0.47;0.30;;;19.70;53.20;;;;;;6088413;23;20355;-59
2023/01/04 06:28:46;;;;;;;0.25;0.20;;;19.70;53.30;;;;;;6088128;23;20022;-61
2023/01/04 06:31:11;;;;;;;0.98;0.38;;;19.70;53.30;;;;;;6087192;23;20021;-59
2023/01/04 06:33:38;;;;;;;2.03;0.43;;;19.70;53.30;;;;;;6062886;23;20336;-59
2023/01/04 06:36:04;;;;;;;0.88;0.30;;;19.70;53.30;;;;;;6088065;23;20089;-59
2023/01/04 06:38:30;;;;;;;0.60;0.45;;;19.70;53.30;;;;;;6088489;23;20011;-58
2023/01/04 06:40:56;;;;;;;0.73;0.40;;;19.70;53.40;;;;;;6085726;23;20022;-60
2023/01/04 06:43:22;;;;;;;0.98;0.32;;;19.70;53.40;;;;;;6086064;23;20022;-60
2023/01/04 06:45:48;;;;;;;0.30;0.20;;;19.70;53.40;;;;;;6086136;23;20352;-58
2023/01/04 06:48:14;;;;;;;0.22;0.20;;;19.70;53.40;;;;;;6086950;23;20018;-58
2023/01/04 06:50:39;;;;;;;2.00;0.30;;;19.70;53.50;;;;;;6088303;23;20026;-61
2023/01/04 06:53:05;;;;;;;0.25;0.25;;;19.70;53.50;;;;;;6087139;23;20018;-61
2023/01/04 06:55:30;;;;;;;1.17;0.20;;;19.70;54.30;;;;;;6088298;23;20010;-60
2023/01/04 06:57:56;;;;;;;1.17;0.30;;;19.70;53.60;;;;;;6087296;23;20474;-58
2023/01/04 07:00:23;;;;;;;0.38;0.30;;;19.70;53.60;;;;;;6088248;23;20011;-58
2023/01/04 07:02:48;;;;;;;0.30;0.30;;;19.70;53.70;;;;;;6087504;23;20045;-59
2023/01/04 07:05:14;;;;;;;0.20;0.20;;;19.70;53.70;;;;;;6087920;23;20018;-60
2023/01/04 07:07:40;;;;;;;0.40;0.25;;;19.70;53.70;;;;;;6085661;23;20019;-59
2023/01/04 07:10:06;;;;;;;0.30;0.20;;;19.70;53.70;;;;;;6085924;23;20022;-59
2023/01/04 07:12:32;;;;;;;0.32;0.20;;;19.70;53.70;;;;;;6085683;23;20077;-60
2023/01/04 07:14:58;;;;;;;1.75;0.30;;;19.70;53.70;;;;;;6087132;23;20018;-59
2023/01/04 07:17:24;;;;;;;0.20;0.20;;;19.60;53.60;;;;;;6084234;23;20021;-57
2023/01/04 07:19:49;;;;;;;0.10;0.10;;;19.60;53.70;;;;;;6087108;23;20331;-60
2023/01/04 07:22:15;;;;;;;0.20;0.20;;;19.60;53.70;;;;;;6086329;23;20014;-60
2023/01/04 07:24:42;;;;;;;0.10;0.10;;;19.60;53.70;;;;;;6086800;23;20010;-59
2023/01/04 07:27:09;;;;;;;0.30;0.10;;;19.60;53.80;;;;;;6084706;23;20029;-58
2023/01/04 07:29:35;;;;;;;0.40;0.20;;;19.60;53.80;;;;;;6086244;23;20100;-59
2023/01/04 07:32:00;;;;;;;0.20;0.10;;;19.60;53.90;;;;;;6085526;23;20117;-60
2023/01/04 07:34:27;;;;;;;0.75;0.20;;;19.60;53.90;;;;;;6086867;23;20025;-60
2023/01/04 07:36:53;;;;;;;0.30;0.22;;;19.60;53.90;;;;;;6084232;23;20022;-59
2023/01/04 07:39:19;;;;;;;2.90;0.60;;;19.60;53.90;;;;;;6086065;23;20024;-59
2023/01/04 07:41:46;;;;;;;0.30;0.30;;;19.60;53.80;;;;;;6085928;23;20597;-63
2023/01/04 07:44:12;;;;;;;1.63;0.30;;;19.70;53.90;;;;;;6084444;23;20454;-59
2023/01/04 07:46:39;;;;;;;1.38;0.30;;;20.10;53.30;;;;;;6086069;23;20029;-60
2023/01/04 07:49:05;;;;;;;0.32;0.30;;;20.60;52.40;;;;;;6086878;23;20018;-58
2023/01/04 07:51:32;;;;;;;0.50;0.35;;;20.80;51.70;;;;;;6086474;23;20046;-60
2023/01/04 07:53:58;;;;;;;1.10;0.20;;;20.90;51.40;;;;;;6086875;23;20018;-61
2023/01/04 07:56:24;;;;;;;0.52;0.10;;;21.10;51.20;;;;;;6085493;23;20015;-59
2023/01/04 07:58:50;;;;;;;0.40;0.20;;;21.20;51.10;;;;;;6086686;23;20066;-61
2023/01/04 08:01:17;;;;;;;2.80;0.30;;;21.30;50.90;;;;;;6083443;23;20010;-60
2023/01/04 08:03:46;;;;;;;0.45;0.20;;;21.30;50.80;;;;;;6085016;23;20759;-60
2023/01/04 08:06:14;;;;;;;0.88;0.20;;;21.40;50.70;;;;;;6084625;23;20022;-62
2023/01/04 08:08:40;;;;;;;1.27;0.30;;;21.50;50.60;;;;;;6085468;23;20522;-60
2023/01/04 08:11:09;;;;;;;0.63;0.17;;;21.50;50.50;;;;;;6084557;23;20092;-57
2023/01/04 08:13:35;;;;;;;0.73;0.20;;;21.50;50.50;;;;;;6084067;23;20018;-59
2023/01/04 08:16:00;;;;;;;0.73;0.13;;;21.50;50.50;;;;;;6084214;23;20379;-59
2023/01/04 08:18:26;;;;;;;1.95;0.10;;;21.60;50.50;;;;;;6085074;23;20610;-58
2023/01/04 08:21:07;;;;;;;1.45;0.20;;;21.60;50.50;;;;;;6085756;23;20761;-59
2023/01/04 08:23:34;;;;;;;1.08;0.20;;;21.60;50.60;;;;;;6085111;23;20498;-59
2023/01/04 08:26:04;;;;;;;1.95;0.20;;;21.60;50.70;;;;;;6085781;23;20010;-63
2023/01/04 08:28:30;;;;;;;1.55;0.30;;;21.60;50.80;;;;;;6085649;23;20014;-59
2023/01/04 08:30:56;;;;;;;0.45;0.30;;;21.70;50.90;;;;;;6085184;23;20094;-58
2023/01/04 08:33:22;;;;;;;0.73;0.22;;;21.70;50.90;;;;;;6085156;23;20076;-57
2023/01/04 08:35:48;;;;;;;0.40;0.10;;;21.70;50.80;;;;;;6084756;23;20372;-61
2023/01/04 08:38:14;;;;;;;0.30;0.13;;;21.80;50.80;;;;;;6083635;23;20041;-58
2023/01/04 08:40:40;;;;;;;0.25;0.10;;;21.80;50.70;;;;;;6084707;23;20046;-59
2023/01/04 08:43:05;;;;;;;1.90;0.10;;;21.80;50.60;;;;;;6084492;23;20478;-59
2023/01/04 08:45:31;;;;;;;0.45;0.22;;;21.80;50.70;;;;;;6084624;23;20304;-58
2023/01/04 08:47:57;;;;;;;1.05;0.20;;;21.70;50.70;;;;;;6085531;23;20057;-59
2023/01/04 08:50:22;;;;;;;0.90;0.20;;;21.80;50.80;;;;;;6084678;23;20069;-61
2023/01/04 08:52:48;;;;;;;0.65;0.15;;;21.80;50.80;;;;;;6083424;23;20026;-59
2023/01/04 08:55:14;;;;;;;0.98;0.20;;;21.80;50.90;;;;;;6083324;23;20351;-59
2023/01/04 08:57:40;;;;;;;0.80;0.25;;;21.90;50.90;;;;;;6083127;23;20019;-59
2023/01/04 09:00:08;;;;;;;0.45;0.35;;;21.80;50.80;;;;;;6083265;23;20642;-59
2023/01/04 09:02:34;;;;;;;0.50;0.20;;;21.90;50.90;;;;;;6085432;23;20139;-61
2023/01/04 09:05:01;;;;;;;0.50;0.20;;;21.80;50.80;;;;;;6084656;23;20427;-59
2023/01/04 09:07:29;;;;;;;1.02;0.30;;;21.90;50.80;;;;;;6082200;23;20022;-60
2023/01/04 09:09:55;;;;;;;1.63;0.30;;;21.90;50.80;;;;;;6059406;23;20026;-59
2023/01/04 09:12:22;;;;;;;2.55;0.17;;;21.90;50.80;;;;;;6084709;23;20033;-57
2023/01/04 09:14:47;;;;;;;0.85;0.20;;;21.90;50.80;;;;;;6085104;23;20021;-59
2023/01/04 09:17:13;;;;;;;1.95;0.28;;;21.90;50.80;;;;;;6082633;23;20018;-59
2023/01/04 09:19:39;;;;;;;0.80;0.20;;;21.90;50.90;;;;;;6083638;23;20026;-59
2023/01/04 09:22:04;;;;;;;1.27;0.20;;;22.00;50.90;;;;;;6084497;23;20085;-59
2023/01/04 09:24:32;;;;;;;0.43;0.13;;;21.90;50.90;;;;;;6085884;23;20041;-58
2023/01/04 09:26:58;;;;;;;2.03;0.22;;;21.90;50.90;;;;;;6085433;23;20066;-59
2023/01/04 09:29:26;;;;;;;1.50;0.20;;;21.90;50.90;;;;;;6085286;23;20014;-58
2023/01/04 09:31:52;;;;;;;0.90;0.10;;;22.00;51.00;;;;;;6082590;23;20025;-60
2023/01/04 09:34:18;;;;;;;0.73;0.25;;;21.90;51.00;;;;;;6059859;23;20287;-57
2023/01/04 09:36:45;;;;;;;0.32;0.15;;;22.00;51.00;;;;;;6084206;23;20018;-58
2023/01/04 09:39:11;;;;;;;1.02;0.30;;;22.00;51.10;;;;;;6085543;23;20320;-60
2023/01/04 09:41:43;;;;;;;0.57;0.17;;;22.00;51.00;;;;;;6084140;23;20372;-59
2023/01/04 09:44:09;;;;;;;0.32;0.20;;;21.90;51.00;;;;;;6085284;23;20019;-59
2023/01/04 09:46:52;;;;;;;0.45;0.20;;;22.00;51.10;;;;;;6084875;23;20391;-61
2023/01/04 09:49:29;;;;;;;0.85;0.20;;;22.00;51.10;;;;;;6086100;23;20125;-59
2023/01/04 09:52:09;;;;;;;0.10;0.10;;;22.00;51.10;;;;;;6086215;23;20125;-58
2023/01/04 09:54:58;;;;;;;1.33;0.30;;;22.00;51.10;;;;;;6086380;23;20792;-59
2023/01/04 09:57:48;;;;;;;1.15;0.25;;;22.00;51.10;;;;;;6086258;23;20019;-59
2023/01/04 10:00:24;;;;;;;0.15;0.10;;;22.00;51.10;;;;;;6086405;23;20010;-58
2023/01/04 10:03:11;;;;;;;0.15;0.15;;;22.00;51.10;;;;;;6084359;23;20014;-58
2023/01/04 10:05:38;;;;;;;0.47;0.20;;;22.00;51.00;;;;;;6087100;23;20046;-57
2023/01/04 10:08:13;;;;;;;0.90;0.17;;;22.10;51.10;;;;;;6085262;23;20065;-58
2023/01/04 10:11:03;;;;;;;0.55;0.10;;;22.10;51.10;;;;;;6087947;23;20510;-59
2023/01/04 10:13:53;;;;;;;0.60;0.10;;;22.10;51.00;;;;;;6087079;23;20018;-61
2023/01/04 10:16:54;;;;;;;0.20;0.10;;;22.10;51.00;;;;;;6086861;23;20028;-59
2023/01/04 10:19:38;;;;;;;1.25;0.35;;;22.10;51.00;;;;;;6085094;23;20022;-58
2023/01/04 10:22:15;;;;;;;0.10;0.10;;;22.10;51.10;;;;;;6086029;23;20340;-59
2023/01/04 10:25:19;;;;;;;1.10;0.13;;;22.10;51.00;;;;;;6086249;23;20015;-59
2023/01/04 10:27:57;;;;;;;1.35;0.20;;;22.10;50.90;;;;;;6084906;23;20026;-58
2023/01/04 10:30:37;;;;;;;0.20;0.10;;;22.10;50.90;;;;;;6085488;23;20022;-59
2023/01/04 10:33:14;;;;;;;1.30;0.20;;;22.10;50.90;;;;;;6084483;23;20033;-60
2023/01/04 10:35:44;;;;;;;2.10;0.17;;;22.10;51.00;;;;;;6086865;23;20037;-59
2023/01/04 10:38:21;;;;;;;0.52;0.20;;;22.10;51.00;;;;;;6084364;23;20022;-58
2023/01/04 10:40:49;;;;;;;0.10;0.10;;;22.10;50.90;;;;;;6086760;23;20046;-58
2023/01/04 10:43:57;;;;;;;1.30;0.20;;;22.10;50.90;;;;;;6086015;23;20383;-58
2023/01/04 10:46:45;;;;;;;0.25;0.15;;;22.20;51.00;;;;;;6043518;23;20018;-60
2023/01/04 10:49:17;;;;;;;1.52;0.20;;;22.20;51.00;;;;;;6084951;23;20046;-59
2023/01/04 10:51:46;;;;;;;1.10;0.30;;;22.20;51.00;;;;;;6083735;23;20057;-59
2023/01/04 10:54:27;;;;;;;0.57;0.20;;;22.20;51.00;;;;;;6061096;23;20055;-60
2023/01/04 10:56:52;;;;;;;;;;;22.20;50.90;;;;;;6086555;23;20018;-60
2023/01/04 10:59:36;;;;;;;1.13;0.10;;;22.20;50.90;;;;;;6085789;23;19989;-59
2023/01/04 11:02:10;;;;;;;0.70;0.20;;;22.20;51.10;;;;;;6084693;23;20021;-59
2023/01/04 11:04:46;;;;;;;1.00;0.17;;;22.20;51.00;;;;;;6084161;23;20018;-58
2023/01/04 11:07:24;;;;;;;0.40;0.32;;;22.30;51.00;;;;;;6083506;23;20026;-57
2023/01/04 11:09:56;;;;;;;2.40;0.50;;;22.20;50.90;;;;;;6083720;23;20054;-59
2023/01/04 11:12:22;;;;;;;0.70;0.28;;;22.20;50.90;;;;;;6082932;23;20014;-58
2023/01/04 11:14:49;;;;;;;0.45;0.30;;;22.20;50.90;;;;;;6083834;23;20522;-59
2023/01/04 11:17:16;;;;;;;0.60;0.25;;;22.20;50.90;;;;;;6084827;23;20073;-60
2023/01/04 11:19:42;;;;;;;1.08;0.20;;;22.20;51.00;;;;;;6085523;23;20018;-59
2023/01/04 11:22:24;;;;;;;0.68;0.22;;;22.20;51.00;;;;;;6035155;23;20014;-59
2023/01/04 11:24:55;;;;;;;0.98;0.50;;;22.30;51.00;;;;;;6082902;23;20351;-59
2023/01/04 11:27:27;;;;;;;1.52;0.35;;;22.30;51.00;;;;;;6083074;23;20089;-60
2023/01/04 11:30:21;;;;;;;0.80;0.30;;;22.30;51.00;;;;;;6059354;23;20526;-59
2023/01/04 11:32:50;;;;;;;1.23;0.40;;;22.30;50.90;;;;;;6084449;23;20022;-60
2023/01/04 11:35:18;;;;;;;3.28;0.40;;;22.30;50.90;;;;;;6084824;23;20089;-60
2023/01/04 11:37:43;;;;;;;0.85;0.30;;;22.30;50.90;;;;;;6083534;23;20081;-59
2023/01/04 11:40:12;;;;;;;3.72;0.50;;;22.30;50.90;;;;;;6081836;23;20451;-59
2023/01/04 11:42:38;;;;;;;0.90;0.40;;;22.30;50.90;;;;;;6081185;23;20057;-60
2023/01/04 11:45:04;;;;;;;0.85;0.40;;;22.30;50.80;;;;;;6084469;23;20058;-60
2023/01/04 11:47:30;;;;;;;0.90;0.60;;;22.30;50.80;;;;;;6082912;23;20010;-60
2023/01/04 11:49:56;;;;;;;1.10;0.50;;;22.30;50.70;;;;;;6085490;23;20026;-60
2023/01/04 11:52:32;;;;;;;1.67;0.40;;;22.30;50.80;;;;;;6084574;23;20014;-59
2023/01/04 11:55:30;;;;;;;1.17;0.30;;;22.30;50.80;;;;;;6083306;23;20106;-62
2023/01/04 11:58:13;;;;;;;0.90;0.60;;;22.30;50.70;;;;;;6083950;23;20050;-63
2023/01/04 12:00:59;;;;;;;1.15;0.50;;;22.30;50.90;;;;;;6085304;23;20014;-62
2023/01/04 12:03:39;;;;;;;2.17;0.50;;;22.30;51.00;;;;;;6084556;23;20025;-60
2023/01/04 12:06:34;;;;;;;1.15;0.60;;;22.30;51.00;;;;;;6083768;23;20046;-60
2023/01/04 12:09:00;;;;;;;1.92;0.55;;;22.30;51.00;;;;;;6083976;23;20054;-62
2023/01/04 12:11:30;;;;;;;1.85;0.55;;;22.30;51.00;;;;;;6058432;23;20057;-59
2023/01/04 12:13:58;;;;;;;1.63;0.60;;;22.30;51.00;;;;;;6083805;23;20022;-59
2023/01/04 12:16:58;;;;;;;1.00;0.45;;;22.30;51.00;;;;;;6085533;23;20097;-57
2023/01/04 12:19:25;;;;;;;1.10;0.43;;;22.30;50.90;;;;;;6082929;23;20024;-58
2023/01/04 12:22:02;;;;;;;0.90;0.38;;;22.30;51.00;;;;;;6082815;23;20050;-57
2023/01/04 12:24:31;;;;;;;1.23;0.60;;;22.30;51.00;;;;;;6085037;23;20025;-59
2023/01/04 12:26:58;;;;;;;0.93;0.50;;;22.30;51.00;;;;;;6058463;23;20053;-59
2023/01/04 12:29:24;;;;;;;1.55;0.47;;;22.30;51.00;;;;;;6083109;23;20022;-58
2023/01/04 12:31:59;;;;;;;0.95;0.40;;;22.30;51.00;;;;;;6085212;23;20484;-59
2023/01/04 12:34:26;;;;;;;1.60;0.60;;;22.30;51.10;;;;;;6084177;23;20382;-58
2023/01/04 12:36:58;;;;;;;1.65;0.43;;;22.30;51.10;;;;;;6083673;23;20018;-58
2023/01/04 12:39:27;;;;;;;1.08;0.30;;;22.30;51.00;;;;;;6086715;23;20057;-63
2023/01/04 12:41:59;;;;;;;1.17;0.38;;;22.30;51.00;;;;;;6084075;23;20018;-64
2023/01/04 12:44:42;;;;;;;1.38;0.50;;;22.30;51.10;;;;;;6086706;23;20029;-61
2023/01/04 12:50:15;;;;;;;0.98;0.50;;;22.30;51.00;;;;;;6084683;23;20057;-63
2023/01/04 12:52:55;;;;;;;0.75;0.40;;;22.30;51.00;;;;;;6086314;23;20392;-63
2023/01/04 12:55:26;;;;;;;0.85;0.35;;;22.30;50.90;;;;;;6086526;23;20018;-61
2023/01/04 12:57:52;;;;;;;1.50;0.40;;;22.30;50.90;;;;;;6083850;23;20018;-61
2023/01/04 13:00:18;;;;;;;1.58;0.50;;;22.30;50.80;;;;;;6087334;23;20021;-64
2023/01/04 13:02:50;;;;;;;1.13;0.45;;;22.40;50.80;;;;;;6084121;23;20019;-63
2023/01/04 13:05:16;;;;;;;1.70;0.40;;;22.30;50.70;;;;;;6083909;23;20011;-63
2023/01/04 13:07:46;;;;;;;0.98;0.43;;;22.30;50.70;;;;;;6085257;23;20014;-64
2023/01/04 13:10:30;;;;;;;1.48;0.60;;;22.40;51.50;;;;;;6084040;23;20342;-62
2023/01/04 13:13:27;;;;;;;1.70;0.45;;;22.40;50.70;;;;;;6085383;23;20101;-61
2023/01/04 13:16:20;;;;;;;1.27;0.77;;;22.40;50.70;;;;;;6060386;23;20029;-63
2023/01/04 13:18:50;;;;;;;1.40;0.50;;;22.40;50.70;;;;;;6086183;23;20033;-63
2023/01/04 13:21:43;;;;;;;1.67;0.60;;;22.30;50.80;;;;;;6060734;23;20022;-63
2023/01/04 13:24:30;;;;;;;1.85;0.65;;;22.40;50.80;;;;;;6086194;23;20026;-62
2023/01/04 13:27:05;;;;;;;1.65;0.57;;;22.40;50.90;;;;;;6086637;23;20014;-62
2023/01/04 13:29:33;;;;;;;2.70;0.65;;;22.40;50.80;;;;;;6086319;23;20014;-62
2023/01/04 13:32:17;;;;;;;3.38;0.98;;;22.40;51.00;;;;;;6087709;23;20045;-63
2023/01/04 13:34:51;;;;;;;4.03;1.20;;;22.30;51.10;;;;;;6086541;23;20014;-62
2023/01/04 13:37:31;;;;;;;5.80;1.60;;;22.40;51.40;;;;;;6085201;23;20046;-63
2023/01/04 13:40:01;;;;;;;5.78;1.48;;;22.40;51.40;;;;;;6062342;23;20014;-62
2023/01/04 13:42:32;;;;;;;;;;;22.40;51.40;;;;;;6086155;23;20826;-62
2023/01/04 13:45:16;;;;;;;3.60;1.20;;;22.30;51.50;;;;;;6087142;23;20258;-63
2023/01/04 13:47:43;;;;;;;4.35;1.45;;;22.30;51.70;;;;;;6084955;23;20025;-61
2023/01/04 13:50:33;;;;;;;5.88;1.50;;;22.30;51.60;;;;;;6087031;23;20033;-64
2023/01/04 13:52:59;;;;;;;5.90;1.40;;;22.30;51.50;;;;;;6086836;23;20120;-62
2023/01/04 13:55:33;;;;;;;6.18;1.58;;;22.30;51.60;;;;;;6085882;23;20018;-63
2023/01/04 13:58:02;;;;;;;6.85;1.42;;;22.40;51.80;;;;;;6084508;23;20022;-62
2023/01/04 14:00:35;;;;;;;2.63;1.27;;;22.40;51.60;;;;;;6085498;23;20010;-62